Time;durP1;ratioP1;P1;durP2;ratioP2;P2;SDS_P1;SDS_P2;PMS_P1;PMS_P2;Temp;Humidity;BMP_temperature;BMP_pressure;BME280_temperature;BME280_humidity;BME280_pressure;Samples;Min_cycle;Max_cycle;Signal;HPM_P1;HPM_P2
2021/12/31 00:00:41;;;;;;;65.43;25.40;;;;;;;2.87;nan;101410.34;5030866;28;20030;-77
2021/12/31 00:03:26;;;;;;;70.90;25.05;;;;;;;2.86;nan;101402.72;5030772;28;20053;-77
2021/12/31 00:06:12;;;;;;;61.30;24.17;;;;;;;2.80;nan;101393.69;5030141;28;20047;-78
2021/12/31 00:08:58;;;;;;;63.28;24.65;;;;;;;2.80;nan;101385.09;5029957;28;20041;-78
2021/12/31 00:11:44;;;;;;;71.03;24.95;;;;;;;2.75;nan;101383.78;5026218;28;20116;-77
2021/12/31 00:14:30;;;;;;;66.50;24.75;;;;;;;2.86;nan;101402.72;5029786;28;20041;-76
2021/12/31 00:17:16;;;;;;;64.93;25.33;;;;;;;2.84;nan;101402.84;5026815;28;20069;-76
2021/12/31 00:20:07;;;;;;;76.15;25.98;;;;;;;2.77;nan;101402.63;5026833;28;20037;-76
2021/12/31 00:23:03;;;;;;;72.85;25.90;;;;;;;2.93;nan;101422.78;5029322;28;20041;-76
2021/12/31 00:25:49;;;;;;;65.35;25.08;;;;;;;2.87;nan;101414.75;5027783;28;20037;-76
2021/12/31 00:28:35;;;;;;;74.38;26.95;;;;;;;2.95;nan;101422.63;5031800;28;20030;-76
2021/12/31 00:31:21;;;;;;;78.03;29.00;;;;;;;2.95;nan;101420.84;5031141;28;20041;-76
2021/12/31 00:34:07;;;;;;;70.05;27.85;;;;;;;2.88;nan;101406.78;5031475;28;20454;-76
2021/12/31 00:36:52;;;;;;;76.78;29.75;;;;;;;2.90;nan;101409.25;5030707;28;20040;-76
2021/12/31 00:39:38;;;;;;;70.65;28.50;;;;;;;2.91;nan;101416.09;5031160;28;20073;-76
2021/12/31 00:42:24;;;;;;;71.63;29.55;;;;;;;2.91;nan;101408.28;5030994;28;20097;-76
2021/12/31 00:45:14;;;;;;;73.95;28.55;;;;;;;2.96;nan;101411.25;5031232;28;20052;-76
2021/12/31 00:47:59;;;;;;;79.60;29.42;;;;;;;3.01;nan;101427.22;5030389;28;20056;-76
2021/12/31 00:50:45;;;;;;;78.40;30.48;;;;;;;2.94;nan;101406.19;5031196;28;20034;-76
2021/12/31 00:53:31;;;;;;;79.88;30.45;;;;;;;3.09;nan;101439.47;5027264;28;20099;-76
2021/12/31 00:56:17;;;;;;;73.45;29.60;;;;;;;3.07;nan;101421.44;5034997;28;20041;-76
2021/12/31 00:59:02;;;;;;;76.90;29.85;;;;;;;2.95;nan;101397.44;5035358;28;20045;-76
2021/12/31 01:01:48;;;;;;;77.25;29.40;;;;;;;2.99;nan;101410.94;5034770;28;20037;-76
2021/12/31 01:04:34;;;;;;;77.10;28.88;;;;;;;3.08;nan;101419.63;5033956;28;20447;-76
2021/12/31 01:07:20;;;;;;;78.13;31.50;;;;;;;2.98;nan;101402.31;5034748;28;20092;-76
2021/12/31 01:10:10;;;;;;;73.30;30.38;;;;;;;3.13;nan;101420.00;5029403;28;20441;-76
2021/12/31 01:12:56;;;;;;;76.38;29.95;;;;;;;3.15;nan;101426.69;5032510;28;20116;-76
2021/12/31 01:15:46;;;;;;;75.07;30.27;;;;;;;3.15;nan;101421.47;5031991;28;20090;-75
2021/12/31 01:21:35;;;;;;;81.22;32.75;;;;;;;3.14;nan;101404.25;5033853;28;20099;-76
2021/12/31 01:24:25;;;;;;;76.55;29.63;;;;;;;3.13;nan;101393.97;5033585;28;20095;-76
2021/12/31 01:27:13;;;;;;;74.35;30.63;;;;;;;3.12;nan;101400.16;5033675;28;20042;-76
2021/12/31 01:29:58;;;;;;;68.47;29.08;;;;;;;3.17;nan;101400.53;5033857;28;20116;-76
2021/12/31 01:32:45;;;;;;;75.72;29.65;;;;;;;3.18;nan;101391.72;5033318;28;21110;-75
2021/12/31 01:35:31;;;;;;;75.90;29.98;;;;;;;3.09;nan;101377.88;5031969;28;20030;-78
2021/12/31 01:38:17;;;;;;;71.65;29.50;;;;;;;3.16;nan;101384.09;5033821;28;20045;-78
2021/12/31 01:41:03;;;;;;;69.70;27.77;;;;;;;3.23;nan;101391.28;5035392;28;20041;-78
2021/12/31 01:43:48;;;;;;;68.97;27.75;;;;;;;3.14;nan;101378.22;5030879;28;20048;-78
2021/12/31 01:46:40;;;;;;;66.60;26.92;;;;;;;3.18;nan;101381.31;5035594;28;20079;-78
2021/12/31 01:49:34;;;;;;;67.15;27.52;;;;;;;3.24;nan;101382.53;5034755;28;20037;-78
2021/12/31 01:52:21;;;;;;;66.10;27.38;;;;;;;3.26;nan;101391.81;5032356;28;20033;-78
2021/12/31 01:55:12;;;;;;;67.05;27.48;;;;;;;3.25;nan;101394.56;5033574;28;20116;-78
2021/12/31 01:57:58;;;;;;;63.92;26.80;;;;;;;3.22;nan;101377.47;5034164;28;20033;-78
2021/12/31 02:00:44;;;;;;;64.28;25.98;;;;;;;3.26;nan;101385.78;5033796;28;20056;-77
2021/12/31 02:03:32;;;;;;;57.67;24.05;;;;;;;3.16;nan;101368.47;5024570;28;20030;-78
2021/12/31 02:06:18;;;;;;;68.70;24.95;;;;;;;3.27;nan;101374.41;5032347;28;20092;-78
2021/12/31 02:09:06;;;;;;;60.35;26.92;;;;;;;3.28;nan;101376.00;5034109;28;20029;-78
2021/12/31 02:11:54;;;;;;;59.15;24.90;;;;;;;3.33;nan;101379.00;5032578;28;20037;-78
2021/12/31 02:14:40;;;;;;;62.33;24.67;;;;;;;3.27;nan;101371.78;5032444;28;20094;-78
2021/12/31 02:17:25;;;;;;;60.78;26.15;;;;;;;3.30;nan;101374.09;5033162;28;20406;-78
2021/12/31 02:20:12;;;;;;;54.83;24.73;;;;;;;3.31;nan;101375.72;5033793;28;20051;-78
2021/12/31 02:23:06;;;;;;;57.85;24.20;;;;;;;3.28;nan;101371.66;5027919;28;20041;-78
2021/12/31 02:25:52;;;;;;;56.40;22.88;;;;;;;3.28;nan;101358.63;5031382;28;20511;-78
2021/12/31 02:28:39;;;;;;;54.78;22.55;;;;;;;3.34;nan;101359.81;5033864;28;20445;-78
2021/12/31 02:31:25;;;;;;;55.13;23.25;;;;;;;3.33;nan;101360.78;5029812;28;20041;-78
2021/12/31 02:34:11;;;;;;;53.90;23.17;;;;;;;3.33;nan;101364.19;5033196;28;20067;-78
2021/12/31 02:36:57;;;;;;;55.42;22.25;;;;;;;3.34;nan;101370.22;5032280;28;20029;-78
2021/12/31 02:39:44;;;;;;;63.28;25.60;;;;;;;3.20;nan;101356.78;5031904;28;20103;-78
2021/12/31 02:42:29;;;;;;;55.63;22.25;;;;;;;3.29;nan;101362.88;5025524;28;20033;-78
2021/12/31 02:45:16;;;;;;;53.05;22.27;;;;;;;3.38;nan;101384.56;5027579;28;20084;-78
2021/12/31 02:48:04;;;;;;;54.60;22.55;;;;;;;3.32;nan;101367.75;5034185;28;20033;-78
2021/12/31 02:50:51;;;;;;;50.72;22.15;;;;;;;3.40;nan;101380.03;5035164;28;20394;-77
2021/12/31 02:53:40;;;;;;;50.08;21.50;;;;;;;3.38;nan;101369.75;5031134;28;20033;-78
2021/12/31 02:56:27;;;;;;;55.33;23.25;;;;;;;3.40;nan;101374.81;5028127;28;20038;-78
2021/12/31 02:59:13;;;;;;;49.03;21.50;;;;;;;3.33;nan;101350.38;5030462;28;20076;-78
2021/12/31 03:01:59;;;;;;;56.15;23.70;;;;;;;3.44;nan;101372.72;5030696;28;20107;-78
2021/12/31 03:04:46;;;;;;;56.33;23.13;;;;;;;3.43;nan;101365.88;5025105;28;20056;-78
2021/12/31 03:07:34;;;;;;;55.47;23.08;;;;;;;3.39;nan;101362.75;5031772;28;20028;-78
2021/12/31 03:10:21;;;;;;;56.65;23.40;;;;;;;3.30;nan;101340.25;5029354;28;20041;-78
2021/12/31 03:13:09;;;;;;;58.00;23.38;;;;;;;3.46;nan;101366.38;5030095;28;20033;-78
2021/12/31 03:15:55;;;;;;;54.00;22.92;;;;;;;3.43;nan;101360.69;5032808;28;20033;-78
2021/12/31 03:18:41;;;;;;;57.10;23.20;;;;;;;3.43;nan;101366.69;5032413;28;20030;-78
2021/12/31 03:21:27;;;;;;;51.97;22.27;;;;;;;3.46;nan;101361.16;5028381;28;20091;-77
2021/12/31 03:24:13;;;;;;;56.58;23.70;;;;;;;3.32;nan;101339.13;5033207;28;20095;-78
2021/12/31 03:26:59;;;;;;;52.22;22.42;;;;;;;3.38;nan;101340.31;5031970;28;20041;-78
2021/12/31 03:29:45;;;;;;;62.75;24.15;;;;;;;3.45;nan;101362.16;5022156;28;20056;-78
2021/12/31 03:32:31;;;;;;;57.17;23.75;;;;;;;3.19;nan;101313.50;5031709;28;20041;-78
2021/12/31 03:35:17;;;;;;;60.08;23.85;;;;;;;3.34;nan;101339.78;5026731;28;20033;-78
2021/12/31 03:38:03;;;;;;;54.80;23.50;;;;;;;3.44;nan;101344.06;5030694;28;20764;-78
2021/12/31 03:40:49;;;;;;;57.05;23.40;;;;;;;3.45;nan;101343.09;5031627;28;20507;-78
2021/12/31 03:43:35;;;;;;;56.08;23.60;;;;;;;3.48;nan;101355.81;5031419;28;20068;-77
2021/12/31 03:46:21;;;;;;;61.47;24.20;;;;;;;3.36;nan;101321.41;5035090;28;20045;-77
2021/12/31 03:49:07;;;;;;;59.17;22.52;;;;;;;3.49;nan;101331.41;5030842;28;20037;-78
2021/12/31 03:51:52;;;;;;;59.47;23.10;;;;;;;3.41;nan;101325.19;5025522;28;20037;-78
2021/12/31 03:54:38;;;;;;;61.30;23.85;;;;;;;3.51;nan;101345.91;5031636;28;20049;-79
2021/12/31 03:57:24;;;;;;;62.25;24.35;;;;;;;3.44;nan;101318.84;5031279;28;20208;-78
2021/12/31 04:00:11;;;;;;;57.70;22.38;;;;;;;3.41;nan;101312.16;5030404;28;20053;-79
2021/12/31 04:02:57;;;;;;;55.42;23.05;;;;;;;3.44;nan;101307.63;5030686;28;20402;-78
2021/12/31 04:05:43;;;;;;;54.28;23.42;;;;;;;3.52;nan;101326.72;5031827;28;20037;-79
2021/12/31 04:08:28;;;;;;;60.88;22.73;;;;;;;3.47;nan;101312.50;5030415;28;20085;-78
2021/12/31 04:11:14;;;;;;;54.13;22.00;;;;;;;3.49;nan;101298.34;5031804;28;20037;-78
2021/12/31 04:14:00;;;;;;;55.97;22.25;;;;;;;3.45;nan;101289.25;5032136;28;20036;-79
2021/12/31 04:16:46;;;;;;;57.40;22.63;;;;;;;3.45;nan;101306.63;5029204;28;20033;-79
2021/12/31 04:19:31;;;;;;;52.85;21.23;;;;;;;3.30;nan;101280.38;5028196;28;20541;-79
2021/12/31 04:22:20;;;;;;;50.58;21.08;;;;;;;3.54;nan;101322.13;5031905;28;20037;-79
2021/12/31 04:25:06;;;;;;;53.42;20.38;;;;;;;3.50;nan;101314.81;5031794;28;20038;-77
2021/12/31 04:27:51;;;;;;;1999.90;597.10;;;;;;;3.56;nan;101327.19;5030182;28;20818;-74
2021/12/31 04:30:37;;;;;;;67.38;23.77;;;;;;;3.31;nan;101266.41;5033371;28;20538;-75
2021/12/31 04:33:23;;;;;;;67.38;25.58;;;;;;;3.58;nan;101313.06;5034093;28;20037;-75
2021/12/31 04:36:09;;;;;;;65.88;24.33;;;;;;;3.55;nan;101315.16;5033536;28;20625;-74
2021/12/31 04:38:55;;;;;;;61.63;23.73;;;;;;;3.58;nan;101323.47;5050456;28;20045;-75
2021/12/31 04:41:40;;;;;;;53.50;22.58;;;;;;;3.55;nan;101308.16;5051911;28;20041;-75
2021/12/31 04:44:26;;;;;;;61.75;23.52;;;;;;;3.53;nan;101309.28;5040486;28;20040;-75
2021/12/31 04:47:12;;;;;;;60.97;23.58;;;;;;;3.55;nan;101323.78;5054451;28;20104;-74
2021/12/31 04:49:58;;;;;;;54.75;21.92;;;;;;;3.52;nan;101316.28;5055070;28;20037;-75
2021/12/31 04:52:44;;;;;;;56.22;23.10;;;;;;;3.67;nan;101336.53;5034780;28;20098;-75
2021/12/31 04:55:30;;;;;;;56.47;23.02;;;;;;;3.67;nan;101339.16;5040552;28;20444;-75
2021/12/31 04:58:16;;;;;;;58.47;22.02;;;;;;;3.41;nan;101295.72;5054691;28;20047;-74
2021/12/31 05:01:03;;;;;;;56.22;22.85;;;;;;;3.62;nan;101324.78;5053698;28;20047;-75
2021/12/31 05:03:48;;;;;;;55.80;22.95;;;;;;;3.46;nan;101284.84;5053781;28;20040;-74
2021/12/31 05:06:34;;;;;;;56.47;23.58;;;;;;;3.68;nan;101325.13;5054298;28;20033;-75
2021/12/31 05:09:20;;;;;;;61.42;24.85;;;;;;;3.66;nan;101322.69;5053673;28;20036;-75
2021/12/31 05:12:06;;;;;;;61.90;24.75;;;;;;;3.72;nan;101327.28;5039508;28;20486;-75
2021/12/31 05:14:52;;;;;;;63.05;24.52;;;;;;;3.64;nan;101309.03;5052927;28;20445;-75
2021/12/31 05:17:38;;;;;;;59.80;25.48;;;;;;;3.68;nan;101322.53;5039538;28;20037;-75
2021/12/31 05:20:24;;;;;;;65.85;25.50;;;;;;;3.73;nan;101356.75;5038672;28;20029;-74
2021/12/31 05:23:11;;;;;;;60.70;25.60;;;;;;;3.72;nan;101336.88;5038577;28;20132;-75
2021/12/31 05:25:56;;;;;;;63.60;24.33;;;;;;;3.73;nan;101336.72;5053283;28;20040;-74
2021/12/31 05:28:42;;;;;;;61.50;24.80;;;;;;;3.75;nan;101339.16;5033479;28;20033;-74
2021/12/31 05:31:28;;;;;;;60.47;24.63;;;;;;;3.70;nan;101336.22;5038426;28;20040;-75
2021/12/31 05:34:14;;;;;;;56.92;23.52;;;;;;;3.66;nan;101333.09;5039215;28;20037;-75
2021/12/31 05:37:00;;;;;;;60.17;23.90;;;;;;;3.76;nan;101343.41;5034463;28;20029;-74
2021/12/31 05:39:46;;;;;;;69.15;26.70;;;;;;;3.71;nan;101335.25;5052430;28;20106;-75
2021/12/31 05:42:31;;;;;;;68.65;24.42;;;;;;;3.53;nan;101306.69;5052750;28;20040;-74
2021/12/31 05:45:17;;;;;;;60.53;24.58;;;;;;;3.69;nan;101321.53;5048443;28;20056;-75
2021/12/31 05:48:03;;;;;;;59.33;24.17;;;;;;;3.69;nan;101317.19;5053038;28;20033;-75
2021/12/31 05:50:49;;;;;;;65.47;25.95;;;;;;;3.70;nan;101318.00;5053074;28;20095;-75
2021/12/31 05:53:35;;;;;;;62.88;25.48;;;;;;;3.76;nan;101326.00;5050743;28;20038;-74
2021/12/31 05:56:20;;;;;;;62.00;25.10;;;;;;;3.75;nan;101320.94;5052146;28;20120;-74
2021/12/31 05:59:06;;;;;;;57.03;23.42;;;;;;;3.78;nan;101325.81;5032541;28;20566;-75
2021/12/31 06:01:52;;;;;;;57.63;23.02;;;;;;;3.68;nan;101304.31;5043599;28;20495;-74
2021/12/31 06:04:38;;;;;;;57.60;23.52;;;;;;;3.73;nan;101317.66;5024914;28;20561;-75
2021/12/31 06:07:24;;;;;;;62.38;24.38;;;;;;;3.78;nan;101331.03;5024487;28;20029;-75
2021/12/31 06:10:10;;;;;;;60.03;24.73;;;;;;;3.79;nan;101328.28;5021524;28;20048;-76
2021/12/31 06:12:58;;;;;;;63.00;24.85;;;;;;;3.78;nan;101323.22;5040451;28;20033;-76
2021/12/31 06:15:47;;;;;;;68.60;26.20;;;;;;;3.72;nan;101316.84;5029605;28;20045;-76
2021/12/31 06:18:32;;;;;;;62.17;25.45;;;;;;;3.78;nan;101318.84;5037196;28;20029;-76
2021/12/31 06:21:18;;;;;;;63.88;24.75;;;;;;;3.72;nan;101303.03;5039393;28;20053;-76
2021/12/31 06:24:05;;;;;;;64.57;24.05;;;;;;;3.79;nan;101315.25;5032799;28;20045;-76
2021/12/31 06:26:50;;;;;;;59.80;23.88;;;;;;;3.79;nan;101314.44;5029824;28;20033;-79
2021/12/31 06:29:36;;;;;;;63.78;26.15;;;;;;;3.78;nan;101315.41;5025363;28;20116;-75
2021/12/31 06:32:23;;;;;;;62.63;25.48;;;;;;;3.84;nan;101326.00;5033551;28;20033;-82
2021/12/31 06:35:09;;;;;;;64.38;25.00;;;;;;;3.86;nan;101317.25;5042304;28;20044;-80
2021/12/31 06:37:56;;;;;;;62.67;25.50;;;;;;;3.83;nan;101321.78;5048666;28;20940;-80
2021/12/31 06:40:41;;;;;;;61.40;25.02;;;;;;;3.83;nan;101318.34;5033893;28;20040;-79
2021/12/31 06:43:27;;;;;;;66.35;25.02;;;;;;;3.80;nan;101316.88;5030850;28;20076;-80
2021/12/31 06:46:13;;;;;;;65.68;25.50;;;;;;;3.89;nan;101343.78;5041422;28;20174;-80
2021/12/31 06:48:59;;;;;;;66.43;27.02;;;;;;;3.88;nan;101341.31;5051933;28;20064;-79
2021/12/31 06:51:44;;;;;;;67.28;27.25;;;;;;;3.83;nan;101334.81;5036568;28;20036;-79
2021/12/31 06:54:30;;;;;;;66.68;27.08;;;;;;;3.84;nan;101336.44;5043586;28;20060;-80
2021/12/31 06:57:16;;;;;;;66.50;28.83;;;;;;;3.86;nan;101341.50;5045091;28;20510;-79
2021/12/31 07:00:06;;;;;;;73.50;28.58;;;;;;;3.72;nan;101316.84;5044233;28;20040;-78
2021/12/31 07:03:06;;;;;;;67.90;27.13;;;;;;;3.92;nan;101342.66;5036025;28;20036;-81
2021/12/31 07:05:52;;;;;;;65.50;25.63;;;;;;;4.03;nan;101360.63;5050887;28;20037;-80
2021/12/31 07:08:38;;;;;;;65.03;25.38;;;;;;;3.99;nan;101344.47;5047040;28;20124;-81
2021/12/31 07:11:24;;;;;;;60.85;25.27;;;;;;;4.06;nan;101362.91;5036038;28;20045;-80
2021/12/31 07:14:10;;;;;;;59.50;23.02;;;;;;;4.04;nan;101351.81;5027761;28;20037;-79
2021/12/31 07:16:55;;;;;;;58.00;24.20;;;;;;;4.05;nan;101353.47;5028002;28;20131;-80
2021/12/31 07:19:43;;;;;;;62.70;24.80;;;;;;;4.07;nan;101351.50;5044706;28;20035;-79
2021/12/31 07:22:28;;;;;;;60.10;25.42;;;;;;;4.15;nan;101359.34;5026049;28;20086;-79
2021/12/31 07:25:15;;;;;;;63.78;27.75;;;;;;;4.12;nan;101348.41;5045031;28;20045;-79
2021/12/31 07:28:01;;;;;;;66.85;27.60;;;;;;;4.17;nan;101364.41;5050084;28;20028;-77
2021/12/31 07:30:48;;;;;;;65.68;27.35;;;;;;;4.10;nan;101364.22;5048341;28;20064;-79
2021/12/31 07:33:33;;;;;;;63.78;27.00;;;;;;;4.16;nan;101367.97;5034161;28;20534;-78
2021/12/31 07:36:19;;;;;;;61.53;25.40;;;;;;;4.22;nan;101375.16;5034999;28;20064;-82
2021/12/31 07:39:07;;;;;;;60.08;25.83;;;;;;;4.15;nan;101369.78;5048097;28;20474;-80
2021/12/31 07:41:53;;;;;;;60.95;24.35;;;;;;;4.22;nan;101380.38;5036665;28;20071;-81
2021/12/31 07:44:39;;;;;;;64.63;25.00;;;;;;;4.22;nan;101378.59;5051268;28;20071;-78
2021/12/31 07:47:25;;;;;;;58.28;24.38;;;;;;;4.24;nan;101381.03;5031193;28;20040;-80
2021/12/31 07:50:11;;;;;;;62.20;25.55;;;;;;;4.29;nan;101386.59;5041446;28;20059;-78
2021/12/31 07:52:57;;;;;;;55.22;23.95;;;;;;;4.37;nan;101391.81;5049207;28;20547;-79
2021/12/31 07:55:43;;;;;;;56.83;23.55;;;;;;;4.28;nan;101374.53;5048768;28;20099;-79
2021/12/31 07:58:29;;;;;;;60.92;23.42;;;;;;;4.35;nan;101382.53;5032410;28;20112;-78
2021/12/31 08:01:16;;;;;;;62.97;24.13;;;;;;;4.30;nan;101369.97;5040191;28;20108;-80
2021/12/31 08:04:02;;;;;;;58.22;23.63;;;;;;;4.36;nan;101385.00;5035609;28;20112;-80
2021/12/31 08:06:50;;;;;;;60.50;25.83;;;;;;;4.33;nan;101374.84;5049691;28;20033;-78
2021/12/31 08:09:35;;;;;;;59.85;24.65;;;;;;;4.33;nan;101369.63;5040449;28;20045;-78
2021/12/31 08:12:21;;;;;;;60.70;24.45;;;;;;;4.26;nan;101348.63;5043255;28;20063;-75
2021/12/31 08:15:07;;;;;;;58.28;24.92;;;;;;;4.51;nan;101389.56;5049565;28;20184;-74
2021/12/31 08:17:56;;;;;;;67.25;26.80;;;;;;;4.42;nan;101370.47;5034764;28;20040;-76
2021/12/31 08:20:42;;;;;;;61.92;25.30;;;;;;;4.52;nan;101393.81;5053847;28;20037;-75
2021/12/31 08:23:28;;;;;;;60.13;25.58;;;;;;;4.40;nan;101364.59;5050906;28;20036;-77
2021/12/31 08:26:14;;;;;;;55.80;24.33;;;;;;;4.58;nan;101395.78;5052937;28;20552;-76
2021/12/31 08:28:59;;;;;;;64.72;26.17;;;;;;;4.54;nan;101384.84;5036135;28;20131;-76
2021/12/31 08:31:45;;;;;;;59.42;23.65;;;;;;;4.53;nan;101379.81;5049982;28;20041;-77
2021/12/31 08:34:31;;;;;;;59.75;24.27;;;;;;;4.54;nan;101387.44;5046508;28;20049;-76
2021/12/31 08:37:17;;;;;;;61.05;25.42;;;;;;;4.59;nan;101402.63;5051821;28;20029;-77
2021/12/31 08:40:04;;;;;;;55.15;25.27;;;;;;;4.63;nan;101403.94;5047105;28;20037;-77
2021/12/31 08:42:50;;;;;;;57.03;24.00;;;;;;;4.66;nan;101395.78;5053313;28;20056;-77
2021/12/31 08:45:35;;;;;;;54.33;23.83;;;;;;;4.58;nan;101374.91;5041946;28;20112;-77
2021/12/31 08:48:24;;;;;;;54.28;24.20;;;;;;;4.57;nan;101370.66;5046637;28;20029;-76
2021/12/31 08:51:10;;;;;;;51.45;24.67;;;;;;;4.63;nan;101375.25;5047959;28;20049;-76
2021/12/31 08:53:55;;;;;;;51.60;23.60;;;;;;;4.74;nan;101387.16;5049504;28;20037;-75
2021/12/31 08:56:43;;;;;;;56.85;24.48;;;;;;;4.71;nan;101384.88;5053818;28;20029;-77
2021/12/31 08:59:28;;;;;;;55.05;23.50;;;;;;;4.77;nan;101392.88;5036944;28;20497;-76
2021/12/31 09:02:14;;;;;;;53.63;23.67;;;;;;;4.77;nan;101389.44;5034113;28;20063;-75
2021/12/31 09:05:00;;;;;;;56.40;24.70;;;;;;;4.81;nan;101391.56;5053466;28;20044;-81
2021/12/31 09:07:46;;;;;;;53.53;24.08;;;;;;;4.82;nan;101384.56;5037039;28;20052;-78
2021/12/31 09:10:32;;;;;;;49.03;23.35;;;;;;;4.88;nan;101386.50;5049292;28;20075;-77
2021/12/31 09:13:19;;;;;;;59.20;25.45;;;;;;;4.95;nan;101384.88;5051500;28;20045;-76
2021/12/31 09:16:04;;;;;;;52.63;23.10;;;;;;;5.01;nan;101388.63;5042954;28;20151;-75
2021/12/31 09:18:50;;;;;;;51.97;23.63;;;;;;;5.06;nan;101392.38;5042945;28;20051;-76
2021/12/31 09:21:36;;;;;;;52.33;23.88;;;;;;;5.07;nan;101388.78;5043725;28;20080;-77
2021/12/31 09:24:22;;;;;;;55.75;24.30;;;;;;;5.10;nan;101383.25;5034020;28;20496;-77
2021/12/31 09:27:09;;;;;;;51.17;23.80;;;;;;;5.20;nan;101384.88;5050594;28;20103;-78
2021/12/31 09:29:55;;;;;;;50.00;22.85;;;;;;;5.26;nan;101389.41;5036929;28;20029;-78
2021/12/31 09:32:41;;;;;;;53.38;23.25;;;;;;;5.29;nan;101373.41;5033577;28;20033;-77
2021/12/31 09:35:27;;;;;;;48.92;22.40;;;;;;;5.23;nan;101367.06;5047364;28;20037;-76
2021/12/31 09:38:13;;;;;;;50.20;23.08;;;;;;;5.30;nan;101365.41;5050223;28;20043;-78
2021/12/31 09:40:59;;;;;;;47.58;22.45;;;;;;;5.32;nan;101350.41;5042168;28;20041;-77
2021/12/31 09:43:49;;;;;;;48.95;22.38;;;;;;;5.41;nan;101361.66;5034771;28;20048;-77
2021/12/31 09:46:35;;;;;;;46.17;21.90;;;;;;;5.38;nan;101351.53;5034133;28;20072;-76
2021/12/31 09:49:21;;;;;;;49.15;21.60;;;;;;;5.42;nan;101352.84;5034571;28;20029;-80
2021/12/31 09:52:11;;;;;;;45.72;20.48;;;;;;;5.54;nan;101353.28;5032899;28;20069;-76
2021/12/31 09:54:57;;;;;;;44.55;20.95;;;;;;;5.53;nan;101347.25;5051687;28;20494;-77
2021/12/31 09:57:43;;;;;;;41.85;20.65;;;;;;;5.65;nan;101359.94;5050174;28;20044;-76
2021/12/31 10:00:29;;;;;;;49.67;21.98;;;;;;;5.75;nan;101358.78;5031690;28;20543;-76
2021/12/31 10:03:25;;;;;;;46.83;20.90;;;;;;;5.78;nan;101348.97;5040480;28;20037;-76
2021/12/31 10:06:12;;;;;;;43.90;20.90;;;;;;;5.86;nan;101356.75;5041984;28;20060;-74
2021/12/31 10:09:03;;;;;;;43.22;20.50;;;;;;;5.83;nan;101338.81;5042941;28;20064;-73
2021/12/31 10:11:48;;;;;;;44.53;20.10;;;;;;;5.89;nan;101340.72;5032053;28;20394;-76
2021/12/31 10:14:40;;;;;;;43.55;20.08;;;;;;;6.00;nan;101339.56;5024444;28;20037;-75
2021/12/31 10:17:35;;;;;;;41.42;19.98;;;;;;;5.96;nan;101333.88;5046111;28;20072;-78
2021/12/31 10:20:22;;;;;;;42.72;19.48;;;;;;;6.04;nan;101336.44;5049595;28;20036;-78
2021/12/31 10:23:16;;;;;;;45.65;21.95;;;;;;;6.13;nan;101342.44;5036487;28;20041;-77
2021/12/31 10:26:13;;;;;;;45.42;21.42;;;;;;;6.15;nan;101346.53;5030352;28;20049;-77
2021/12/31 10:28:59;;;;;;;46.53;22.33;;;;;;;6.20;nan;101343.38;5037060;28;20662;-76
2021/12/31 10:31:47;;;;;;;45.15;22.88;;;;;;;6.15;nan;101333.47;5023740;28;20123;-76
2021/12/31 10:34:37;;;;;;;47.30;22.38;;;;;;;6.20;nan;101338.13;5040712;28;20032;-77
2021/12/31 10:37:26;;;;;;;50.38;22.80;;;;;;;6.21;nan;101333.75;5025238;28;20486;-77
2021/12/31 10:40:36;;;;;;;44.85;22.75;;;;;;;6.37;nan;101354.56;5026895;28;20045;-76
2021/12/31 10:43:23;;;;;;;43.83;22.48;;;;;;;6.34;nan;101334.78;5029636;28;20469;-76
2021/12/31 10:46:11;;;;;;;53.67;23.42;;;;;;;6.45;nan;101340.63;5040535;28;20528;-77
2021/12/31 10:49:03;;;;;;;48.88;23.50;;;;;;;6.75;nan;101380.78;5041315;28;20021;-77
2021/12/31 10:51:48;;;;;;;47.08;22.42;;;;;;;6.42;nan;101318.25;5025393;28;20464;-78
2021/12/31 10:54:46;;;;;;;49.00;23.35;;;;;;;6.49;nan;101332.25;5042198;28;20394;-77
2021/12/31 10:57:38;;;;;;;49.75;22.65;;;;;;;6.56;nan;101325.31;5029433;28;20044;-78
2021/12/31 11:00:26;;;;;;;48.92;23.88;;;;;;;6.50;nan;101309.50;5043653;28;20566;-78
2021/12/31 11:03:12;;;;;;;52.60;23.85;;;;;;;6.58;nan;101327.75;5049340;28;20072;-77
2021/12/31 11:05:59;;;;;;;46.65;23.35;;;;;;;6.64;nan;101331.50;5048329;28;20037;-78
2021/12/31 11:08:47;;;;;;;54.42;25.83;;;;;;;6.66;nan;101317.22;5045210;28;20083;-78
2021/12/31 11:11:34;;;;;;;51.63;25.05;;;;;;;6.74;nan;101321.59;5052107;28;20035;-77
2021/12/31 11:14:21;;;;;;;49.97;24.27;;;;;;;6.71;nan;101309.66;5033276;28;20407;-77
2021/12/31 11:17:06;;;;;;;51.60;24.75;;;;;;;6.78;nan;101325.47;5024165;28;20483;-76
2021/12/31 11:19:53;;;;;;;54.55;25.88;;;;;;;6.73;nan;101299.03;5034748;28;20384;-76
2021/12/31 11:22:39;;;;;;;55.05;25.83;;;;;;;6.86;nan;101312.31;5020002;28;20032;-76
2021/12/31 11:25:27;;;;;;;52.47;25.25;;;;;;;6.89;nan;101311.94;5034824;28;20029;-77
2021/12/31 11:28:23;;;;;;;54.47;26.30;;;;;;;6.83;nan;101291.72;5045963;28;20029;-77
2021/12/31 11:31:18;;;;;;;52.47;26.98;;;;;;;6.95;nan;101300.78;5029610;28;20060;-77
2021/12/31 11:34:08;;;;;;;54.10;25.63;;;;;;;7.00;nan;101300.25;5031886;28;20029;-77
2021/12/31 11:36:54;;;;;;;55.17;26.80;;;;;;;7.02;nan;101298.25;5030255;28;20108;-77
2021/12/31 11:39:41;;;;;;;56.22;27.23;;;;;;;7.00;nan;101281.91;5032599;28;20045;-76
2021/12/31 11:42:27;;;;;;;57.60;27.08;;;;;;;6.86;nan;101253.91;5039866;28;20482;-77
2021/12/31 11:45:15;;;;;;;56.42;27.08;;;;;;;6.91;nan;101249.75;5041402;28;20380;-77
2021/12/31 11:48:27;;;;;;;53.45;26.02;;;;;;;7.09;nan;101278.22;5044255;28;20038;-77
2021/12/31 11:51:33;;;;;;;52.35;25.75;;;;;;;7.24;nan;101284.25;5015925;28;20152;-76
2021/12/31 11:54:19;;;;;;;59.17;28.05;;;;;;;7.13;nan;101253.28;5043680;28;20040;-77
2021/12/31 11:57:10;;;;;;;53.65;26.67;;;;;;;7.27;nan;101267.38;5049969;28;20029;-76
2021/12/31 11:59:58;;;;;;;52.35;25.95;;;;;;;7.32;nan;101257.16;5044965;28;20454;-76
2021/12/31 12:02:43;;;;;;;52.30;27.33;;;;;;;7.42;nan;101264.72;5032176;28;20041;-77
2021/12/31 12:05:41;;;;;;;55.80;27.52;;;;;;;7.49;nan;101278.72;5048747;28;20037;-76
2021/12/31 12:08:27;;;;;;;56.38;28.02;;;;;;;7.40;nan;101243.16;5036074;28;20510;-76
2021/12/31 12:11:52;;;;;;;52.78;27.77;;;;;;;7.58;nan;101264.53;5047075;28;20465;-76
2021/12/31 12:14:42;;;;;;;53.70;27.90;;;;;;;7.63;nan;101270.03;5046508;28;20040;-77
2021/12/31 12:17:28;;;;;;;56.50;29.98;;;;;;;7.70;nan;101269.31;5047347;28;20036;-76
2021/12/31 12:20:18;;;;;;;61.10;30.45;;;;;;;7.67;nan;101267.88;5036747;28;20040;-76
2021/12/31 12:23:16;;;;;;;54.40;29.33;;;;;;;7.66;nan;101259.19;5033908;28;20032;-76
2021/12/31 12:26:02;;;;;;;55.30;28.90;;;;;;;7.67;nan;101252.13;5032086;28;20033;-77
2021/12/31 12:28:50;;;;;;;51.85;28.33;;;;;;;7.76;nan;101265.97;5035064;28;20041;-76
2021/12/31 12:31:40;;;;;;;52.40;27.80;;;;;;;7.76;nan;101264.16;5049688;28;20033;-76
2021/12/31 12:34:28;;;;;;;56.42;28.88;;;;;;;7.78;nan;101256.06;5044470;28;20037;-77
2021/12/31 12:37:16;;;;;;;56.95;29.85;;;;;;;7.76;nan;101248.41;5041832;28;20086;-77
2021/12/31 12:40:04;;;;;;;58.47;28.90;;;;;;;7.87;nan;101257.59;5047493;28;20060;-74
2021/12/31 12:42:44;;;;;;;61.22;30.83;;;;;;;7.91;nan;101256.22;5032270;28;20049;-76
2021/12/31 12:45:09;;;;;;;62.10;31.40;;;;;;;7.86;nan;101238.44;5028923;28;20044;-76
2021/12/31 12:47:38;;;;;;;61.22;30.05;;;;;;;8.04;nan;101250.28;5041301;28;20116;-77
2021/12/31 12:50:10;;;;;;;59.00;30.77;;;;;;;8.18;nan;101254.66;5016944;28;20037;-77
2021/12/31 12:52:36;;;;;;;58.92;31.33;;;;;;;8.32;nan;101252.97;5033513;28;20032;-76
2021/12/31 12:55:17;;;;;;;57.65;29.98;;;;;;;8.76;nan;101301.81;5047256;28;20033;-76
2021/12/31 12:57:42;;;;;;;55.08;29.55;;;;;;;8.51;nan;101241.84;5048665;28;20033;-77
2021/12/31 13:00:09;;;;;;;53.72;29.55;;;;;;;8.44;nan;101224.44;5049976;28;20545;-76
2021/12/31 13:02:41;;;;;;;60.47;30.75;;;;;;;8.58;nan;101231.41;5051374;28;20029;-76
2021/12/31 13:05:14;;;;;;;57.90;29.15;;;;;;;8.71;nan;101234.16;5030666;28;20067;-75
2021/12/31 13:07:53;;;;;;;55.75;30.02;;;;;;;8.69;nan;101214.31;5025667;28;20071;-75